createdAt,value
2023-04-30T00:00:19.460Z,6.30
2023-04-30T00:01:19.440Z,6.60
2023-04-30T00:02:19.368Z,5.90
2023-04-30T00:03:19.484Z,6.30
2023-04-30T00:04:19.485Z,6.20
2023-04-30T00:05:19.447Z,6.20
2023-04-30T00:06:19.424Z,6.10
2023-04-30T00:07:19.276Z,5.70
2023-04-30T00:08:19.375Z,6.10
2023-04-30T00:09:19.295Z,6.00
2023-04-30T00:10:19.356Z,6.60
2023-04-30T00:11:19.397Z,6.20
2023-04-30T00:12:19.421Z,6.30
2023-04-30T00:13:19.443Z,6.40
2023-04-30T00:14:19.351Z,6.30
2023-04-30T00:15:19.299Z,6.60
2023-04-30T00:16:19.431Z,6.40
2023-04-30T00:17:19.278Z,6.50
2023-04-30T00:18:19.379Z,6.80
2023-04-30T00:19:19.319Z,6.70
2023-04-30T00:20:19.266Z,6.40
2023-04-30T00:21:19.278Z,6.40
2023-04-30T00:22:19.307Z,6.60
2023-04-30T00:23:19.190Z,6.40
2023-04-30T00:24:19.326Z,6.90
2023-04-30T00:25:19.191Z,6.30
2023-04-30T00:26:19.198Z,6.50
2023-04-30T00:27:19.188Z,6.40
2023-04-30T00:28:19.044Z,7.10
2023-04-30T00:29:19.214Z,6.60
2023-04-30T00:30:19.123Z,6.20
2023-04-30T00:31:19.141Z,7.10
2023-04-30T00:32:19.014Z,6.80
2023-04-30T00:33:18.943Z,7.00
2023-04-30T00:34:19.164Z,6.70
2023-04-30T00:35:19.104Z,6.80
2023-04-30T00:36:19.042Z,7.00
2023-04-30T00:37:19.066Z,6.90
2023-04-30T00:38:19.071Z,7.30
2023-04-30T00:39:19.129Z,6.90
2023-04-30T00:40:19.061Z,6.90
2023-04-30T00:41:18.999Z,7.00
2023-04-30T00:42:19.069Z,6.80
2023-04-30T00:43:18.892Z,6.80
2023-04-30T00:44:19.006Z,6.90
2023-04-30T00:45:19.008Z,6.80
2023-04-30T00:46:18.880Z,7.40
2023-04-30T00:47:18.930Z,7.00
2023-04-30T00:48:18.939Z,7.30
2023-04-30T00:49:18.944Z,7.40
2023-04-30T00:50:18.930Z,7.10
2023-04-30T00:51:18.989Z,7.50
2023-04-30T00:52:18.976Z,7.00
2023-04-30T00:53:18.971Z,6.10
2023-04-30T00:54:18.977Z,6.60
2023-04-30T00:55:18.845Z,7.10
2023-04-30T00:56:19.010Z,6.90
2023-04-30T00:57:18.955Z,7.00
2023-04-30T00:58:18.819Z,7.30
2023-04-30T00:59:18.737Z,6.70
2023-04-30T01:00:18.851Z,7.60
2023-04-30T01:01:18.930Z,7.00
2023-04-30T01:02:18.778Z,7.20
2023-04-30T01:03:18.950Z,7.20
2023-04-30T01:04:18.782Z,7.20
2023-04-30T01:05:18.713Z,7.40
2023-04-30T01:06:18.768Z,7.30
2023-04-30T01:07:18.839Z,7.30
2023-04-30T01:08:18.686Z,7.20
2023-04-30T01:09:18.701Z,7.30
2023-04-30T01:10:18.685Z,7.10
2023-04-30T01:11:18.603Z,6.40
2023-04-30T01:12:18.699Z,7.30
2023-04-30T01:13:18.780Z,6.80
2023-04-30T01:14:18.722Z,7.00
2023-04-30T01:15:18.514Z,7.40
2023-04-30T01:16:18.678Z,7.10
2023-04-30T01:17:18.769Z,6.70
2023-04-30T01:18:18.668Z,7.10
2023-04-30T01:19:18.680Z,6.70
2023-04-30T01:20:18.606Z,7.20
2023-04-30T01:21:18.548Z,7.30
2023-04-30T01:22:18.572Z,7.00
2023-04-30T01:23:18.634Z,6.60
2023-04-30T01:24:18.540Z,7.10
2023-04-30T01:25:18.664Z,6.80
2023-04-30T01:26:18.488Z,6.70
2023-04-30T01:27:18.506Z,7.20
2023-04-30T01:28:18.508Z,7.10
2023-04-30T01:29:18.532Z,6.90
2023-04-30T01:30:18.556Z,7.00
2023-04-30T01:31:18.419Z,6.60
2023-04-30T01:32:18.361Z,6.90
2023-04-30T01:33:18.487Z,6.90
2023-04-30T01:34:18.423Z,7.40
2023-04-30T01:35:18.472Z,7.30
2023-04-30T01:36:18.415Z,7.20
2023-04-30T01:37:18.365Z,6.80
2023-04-30T01:38:18.497Z,6.30
2023-04-30T01:39:18.340Z,6.50
2023-04-30T01:40:18.367Z,6.60
2023-04-30T01:41:18.435Z,6.50
2023-04-30T01:42:18.358Z,6.80
2023-04-30T01:43:18.349Z,7.00
2023-04-30T01:44:18.331Z,6.60
2023-04-30T01:45:18.313Z,6.60
2023-04-30T01:46:18.418Z,6.40
2023-04-30T01:47:18.359Z,6.60
2023-04-30T01:48:18.273Z,6.50
2023-04-30T01:49:18.275Z,6.10
2023-04-30T01:50:18.284Z,6.30
2023-04-30T01:51:18.286Z,6.60
2023-04-30T01:52:18.289Z,6.00
2023-04-30T01:53:18.219Z,6.60
2023-04-30T01:54:18.157Z,6.00
2023-04-30T01:55:18.296Z,6.70
2023-04-30T01:56:18.166Z,6.40
2023-04-30T01:57:18.299Z,6.20
2023-04-30T01:58:18.199Z,6.50
2023-04-30T01:59:18.137Z,6.50
2023-04-30T02:00:18.053Z,6.50
2023-04-30T02:01:18.146Z,6.20
2023-04-30T02:02:18.212Z,6.50
2023-04-30T02:03:18.099Z,6.10
2023-04-30T02:04:18.086Z,6.10
2023-04-30T02:05:17.965Z,6.50
2023-04-30T02:06:18.091Z,6.20
2023-04-30T02:07:18.161Z,6.40
2023-04-30T02:08:18.204Z,6.20
2023-04-30T02:09:18.030Z,6.20
2023-04-30T02:10:18.047Z,6.30
2023-04-30T02:11:17.885Z,5.90
2023-04-30T02:12:17.942Z,6.10
2023-04-30T02:13:18.131Z,6.00
2023-04-30T02:14:17.978Z,5.80
2023-04-30T02:15:17.982Z,6.10
2023-04-30T02:16:18.095Z,6.20
2023-04-30T02:17:17.935Z,6.20
2023-04-30T02:18:18.011Z,6.00
2023-04-30T02:19:17.903Z,6.30
2023-04-30T02:20:17.911Z,5.80
2023-04-30T02:21:17.928Z,6.30
2023-04-30T02:22:17.860Z,6.00
2023-04-30T02:23:18.018Z,6.20
2023-04-30T02:24:17.851Z,6.40
2023-04-30T02:25:17.849Z,6.20
2023-04-30T02:26:17.851Z,5.70
2023-04-30T02:27:17.850Z,5.50
2023-04-30T02:28:17.835Z,5.90
2023-04-30T02:29:17.917Z,6.20
2023-04-30T02:30:17.928Z,5.90
2023-04-30T02:31:17.808Z,5.80
2023-04-30T02:32:17.787Z,5.80
2023-04-30T02:33:17.800Z,5.80
2023-04-30T02:34:17.815Z,5.50
2023-04-30T02:35:17.613Z,5.50
2023-04-30T02:36:17.723Z,5.20
2023-04-30T02:37:17.726Z,5.70
2023-04-30T02:38:17.739Z,5.60
2023-04-30T02:39:17.685Z,5.30
2023-04-30T02:40:17.780Z,5.40
2023-04-30T02:41:17.601Z,6.00
2023-04-30T02:42:17.708Z,5.70
2023-04-30T02:43:17.659Z,5.70
2023-04-30T02:44:17.735Z,5.70
2023-04-30T02:45:17.737Z,5.50
2023-04-30T02:46:17.681Z,5.60
2023-04-30T02:47:17.666Z,6.80
2023-04-30T02:48:17.597Z,6.10
2023-04-30T02:49:17.428Z,6.80
2023-04-30T02:50:17.606Z,6.40
2023-04-30T02:51:17.496Z,6.20
2023-04-30T02:52:17.633Z,6.30
2023-04-30T02:53:17.540Z,6.60
2023-04-30T02:54:17.549Z,6.40
2023-04-30T02:55:17.574Z,6.20
2023-04-30T02:56:17.580Z,5.90
2023-04-30T02:57:17.526Z,6.40
2023-04-30T02:58:17.469Z,5.90
2023-04-30T02:59:17.437Z,6.20
2023-04-30T03:00:17.444Z,6.40
2023-04-30T03:01:17.559Z,6.20
2023-04-30T03:02:17.506Z,6.60
2023-04-30T03:03:17.529Z,6.40
2023-04-30T03:04:17.413Z,6.80
2023-04-30T03:05:17.373Z,7.40
2023-04-30T03:06:17.389Z,7.30
2023-04-30T03:07:17.419Z,6.90
2023-04-30T03:08:17.529Z,6.40
2023-04-30T03:09:17.400Z,6.40
2023-04-30T03:10:17.429Z,6.20
2023-04-30T03:11:17.377Z,6.20
2023-04-30T03:12:17.387Z,6.20
2023-04-30T03:13:17.410Z,6.00
2023-04-30T03:14:17.367Z,6.00
2023-04-30T03:15:17.426Z,6.10
2023-04-30T03:16:17.333Z,6.30
2023-04-30T03:17:17.332Z,6.00
2023-04-30T03:18:17.454Z,6.40
2023-04-30T03:19:17.339Z,6.50
2023-04-30T03:20:17.313Z,6.30
2023-04-30T03:21:17.235Z,6.20
2023-04-30T03:22:17.236Z,6.20
2023-04-30T03:23:17.035Z,6.10
2023-04-30T03:24:17.227Z,5.80
2023-04-30T03:25:17.297Z,6.10
2023-04-30T03:26:17.023Z,6.70
2023-04-30T03:27:17.063Z,6.80
2023-04-30T03:28:17.053Z,7.30
2023-04-30T03:29:17.168Z,7.00
2023-04-30T03:30:17.193Z,6.70
2023-04-30T03:31:17.189Z,6.30
2023-04-30T03:32:16.993Z,6.50
2023-04-30T03:33:17.065Z,6.90
2023-04-30T03:34:17.197Z,6.60
2023-04-30T03:35:17.055Z,6.30
2023-04-30T03:36:16.967Z,6.40
2023-04-30T03:37:17.150Z,7.10
2023-04-30T03:38:17.083Z,6.60
2023-04-30T03:39:17.019Z,7.00
2023-04-30T03:40:17.032Z,7.50
2023-04-30T03:41:17.066Z,7.20
2023-04-30T03:42:17.105Z,7.20
2023-04-30T03:43:17.043Z,7.60
2023-04-30T03:44:17.059Z,7.10
2023-04-30T03:45:16.968Z,7.00
2023-04-30T03:46:17.083Z,7.40
2023-04-30T03:47:17.058Z,7.00
2023-04-30T03:48:17.083Z,7.30
2023-04-30T03:49:16.920Z,7.10
2023-04-30T03:50:16.925Z,7.00
2023-04-30T03:51:16.925Z,6.50
2023-04-30T03:52:17.019Z,6.40
2023-04-30T03:53:16.873Z,6.30
2023-04-30T03:54:16.892Z,6.00
2023-04-30T03:55:16.756Z,5.90
2023-04-30T03:56:16.924Z,5.90
2023-04-30T03:57:16.942Z,5.90
2023-04-30T03:58:16.880Z,6.10
2023-04-30T03:59:16.875Z,6.20
2023-04-30T04:00:16.709Z,6.10
2023-04-30T04:01:16.708Z,6.20
2023-04-30T04:02:17.097Z,6.30
2023-04-30T04:03:16.858Z,6.70
2023-04-30T04:04:16.884Z,6.50
2023-04-30T04:05:16.773Z,6.90
2023-04-30T04:06:16.806Z,7.40
2023-04-30T04:07:16.893Z,7.30
2023-04-30T04:08:16.772Z,7.60
2023-04-30T04:09:16.768Z,6.90
2023-04-30T04:10:16.766Z,6.60
2023-04-30T04:11:16.836Z,7.30
2023-04-30T04:12:16.785Z,6.60
2023-04-30T04:13:16.765Z,7.00
2023-04-30T04:14:16.762Z,6.90
2023-04-30T04:15:16.726Z,6.90
2023-04-30T04:16:16.839Z,6.70
2023-04-30T04:17:16.648Z,6.70
2023-04-30T04:18:16.549Z,6.40
2023-04-30T04:19:16.654Z,6.40
2023-04-30T04:20:16.637Z,6.20
2023-04-30T04:21:16.616Z,6.40
2023-04-30T04:22:16.719Z,6.20
2023-04-30T04:23:16.701Z,5.90
2023-04-30T04:24:16.616Z,6.10
2023-04-30T04:25:16.621Z,5.80
2023-04-30T04:26:16.712Z,5.90
2023-04-30T04:27:16.622Z,5.90
2023-04-30T04:28:16.608Z,5.90
2023-04-30T04:29:16.681Z,5.60
2023-04-30T04:30:16.663Z,5.20
2023-04-30T04:31:16.525Z,5.10
2023-04-30T04:32:16.517Z,5.60
2023-04-30T04:33:16.528Z,5.00
2023-04-30T04:34:16.338Z,4.60
2023-04-30T04:35:16.606Z,4.90
2023-04-30T04:36:16.653Z,4.60
2023-04-30T04:37:16.363Z,4.40
2023-04-30T04:38:16.441Z,4.90
2023-04-30T04:39:16.514Z,4.80
2023-04-30T04:40:16.424Z,5.00
2023-04-30T04:41:16.495Z,5.00
2023-04-30T04:42:16.487Z,5.40
2023-04-30T04:43:16.317Z,5.20
2023-04-30T04:44:16.509Z,5.20
2023-04-30T04:45:16.371Z,5.10
2023-04-30T04:46:16.412Z,5.80
2023-04-30T04:47:16.395Z,5.30
2023-04-30T04:48:16.434Z,5.50
2023-04-30T04:49:16.382Z,5.30
2023-04-30T04:50:16.250Z,5.20
2023-04-30T04:51:16.350Z,5.60
2023-04-30T04:52:16.363Z,5.40
2023-04-30T04:53:16.126Z,5.20
2023-04-30T04:54:16.250Z,5.20
2023-04-30T04:55:16.352Z,5.30
2023-04-30T04:56:16.302Z,5.00
2023-04-30T04:57:16.326Z,5.20
2023-04-30T04:58:16.270Z,5.30
2023-04-30T04:59:16.212Z,5.20
2023-04-30T05:00:16.235Z,5.00
2023-04-30T05:01:16.083Z,5.10
2023-04-30T05:02:16.288Z,4.90
2023-04-30T05:03:16.309Z,4.90
2023-04-30T05:04:16.357Z,5.40
2023-04-30T05:05:16.171Z,5.20
2023-04-30T05:06:16.247Z,4.90
2023-04-30T05:07:16.126Z,4.80
2023-04-30T05:08:16.149Z,4.80
2023-04-30T05:09:15.985Z,4.50
2023-04-30T05:10:16.178Z,4.60
2023-04-30T05:11:16.128Z,4.50
2023-04-30T05:12:15.934Z,4.30
2023-04-30T05:13:16.097Z,4.60
2023-04-30T05:14:16.117Z,4.10
2023-04-30T05:15:16.128Z,4.20
2023-04-30T05:16:16.109Z,4.10
2023-04-30T05:17:15.992Z,3.90
2023-04-30T05:18:16.023Z,4.00
2023-04-30T05:19:16.052Z,4.00
2023-04-30T05:20:15.997Z,4.00
2023-04-30T05:21:16.127Z,4.10
2023-04-30T05:22:16.102Z,4.10
2023-04-30T05:23:16.012Z,3.80
2023-04-30T05:24:15.911Z,3.90
2023-04-30T05:25:15.997Z,3.80
2023-04-30T05:26:16.055Z,4.00
2023-04-30T05:27:15.965Z,3.90
2023-04-30T05:28:15.961Z,4.00
2023-04-30T05:29:15.963Z,4.10
2023-04-30T05:30:15.970Z,4.30
2023-04-30T05:31:15.897Z,3.80
2023-04-30T05:32:16.186Z,4.10
2023-04-30T05:33:15.924Z,4.40
2023-04-30T05:34:15.864Z,4.20
2023-04-30T05:35:15.882Z,3.90
2023-04-30T05:36:15.742Z,4.00
2023-04-30T05:37:15.833Z,3.70
2023-04-30T05:38:15.922Z,3.90
2023-04-30T05:39:15.836Z,3.80
2023-04-30T05:40:15.836Z,3.90
2023-04-30T05:41:15.826Z,3.60
2023-04-30T05:42:15.817Z,3.70
2023-04-30T05:43:15.898Z,4.00
2023-04-30T05:44:15.745Z,3.80
2023-04-30T05:45:15.759Z,3.80
2023-04-30T05:46:15.824Z,3.90
2023-04-30T05:47:15.694Z,3.90
2023-04-30T05:48:15.859Z,3.40
2023-04-30T05:49:15.720Z,4.00
2023-04-30T05:50:15.745Z,3.40
2023-04-30T05:51:15.740Z,3.30
2023-04-30T05:52:15.733Z,3.50
2023-04-30T05:53:15.737Z,3.50
2023-04-30T05:54:15.780Z,3.80
2023-04-30T05:55:15.708Z,3.80
2023-04-30T05:56:15.703Z,3.80
2023-04-30T05:57:15.561Z,3.10
2023-04-30T05:58:15.780Z,3.30
2023-04-30T05:59:15.600Z,3.70
2023-04-30T06:00:15.740Z,3.60
2023-04-30T06:01:15.458Z,3.20
2023-04-30T06:02:15.502Z,3.20
2023-04-30T06:03:15.477Z,3.10
2023-04-30T06:04:15.545Z,3.10
2023-04-30T06:05:16.294Z,3.30
2023-04-30T06:06:15.668Z,3.50
2023-04-30T06:07:15.399Z,3.10
2023-04-30T06:08:15.389Z,3.20
2023-04-30T06:09:15.391Z,2.80
2023-04-30T06:10:15.399Z,3.00
2023-04-30T06:11:15.437Z,3.00
2023-04-30T06:12:15.316Z,2.60
2023-04-30T06:13:15.354Z,3.10
2023-04-30T06:14:15.445Z,3.00
2023-04-30T06:15:15.333Z,3.10
2023-04-30T06:16:15.424Z,3.30
2023-04-30T06:17:15.462Z,2.60
2023-04-30T06:18:15.273Z,2.70
2023-04-30T06:19:15.252Z,2.60
2023-04-30T06:20:15.273Z,2.30
2023-04-30T06:21:15.274Z,2.50
2023-04-30T06:22:15.567Z,2.30
2023-04-30T06:23:15.251Z,1.90
2023-04-30T06:24:15.287Z,2.20
2023-04-30T06:25:15.266Z,2.00
2023-04-30T06:26:15.361Z,2.30
2023-04-30T06:27:15.190Z,2.10
2023-04-30T06:28:15.238Z,2.00
2023-04-30T06:29:15.218Z,2.20
2023-04-30T06:30:15.182Z,2.20
2023-04-30T06:31:15.288Z,2.20
2023-04-30T06:32:15.184Z,2.40
2023-04-30T06:33:15.234Z,2.00
2023-04-30T06:34:15.139Z,1.90
2023-04-30T06:35:15.075Z,2.20
2023-04-30T06:36:15.092Z,1.80
2023-04-30T06:37:15.049Z,2.10
2023-04-30T06:38:15.082Z,2.00
2023-04-30T06:39:15.077Z,2.20
2023-04-30T06:40:15.036Z,1.80
2023-04-30T06:41:15.037Z,1.90
2023-04-30T06:42:15.024Z,2.30
2023-04-30T06:43:14.989Z,2.20
2023-04-30T06:44:15.241Z,2.20
2023-04-30T06:45:15.069Z,2.30
2023-04-30T06:46:15.381Z,2.20
2023-04-30T06:47:15.133Z,2.10
2023-04-30T06:48:15.067Z,2.40
2023-04-30T06:49:14.997Z,2.50
2023-04-30T06:50:15.154Z,2.10
2023-04-30T06:51:15.111Z,2.30
2023-04-30T06:52:15.094Z,2.20
2023-04-30T06:53:14.931Z,2.10
2023-04-30T06:54:14.868Z,2.10
2023-04-30T06:55:15.080Z,2.20
2023-04-30T06:56:14.972Z,1.80
2023-04-30T06:57:14.989Z,2.20
2023-04-30T06:58:14.984Z,2.00
2023-04-30T06:59:15.008Z,2.10
2023-04-30T07:00:14.949Z,2.00
2023-04-30T07:01:15.081Z,2.10
2023-04-30T07:02:15.011Z,2.00
2023-04-30T07:03:15.026Z,2.10
2023-04-30T07:04:14.956Z,1.80
2023-04-30T07:05:15.027Z,2.20
2023-04-30T07:06:14.861Z,2.20
2023-04-30T07:07:14.783Z,2.30
2023-04-30T07:08:14.923Z,2.10
2023-04-30T07:09:14.934Z,2.10
2023-04-30T07:10:14.861Z,2.00
2023-04-30T07:11:14.941Z,2.00
2023-04-30T07:12:14.869Z,2.40
2023-04-30T07:13:14.779Z,2.10
2023-04-30T07:14:14.867Z,2.40
2023-04-30T07:15:14.942Z,2.10
2023-04-30T07:16:14.897Z,2.10
2023-04-30T07:17:14.896Z,2.10
2023-04-30T07:18:14.837Z,1.90
2023-04-30T07:19:14.781Z,2.00
2023-04-30T07:20:14.875Z,2.30
2023-04-30T07:21:14.789Z,2.20
2023-04-30T07:22:14.784Z,2.50
2023-04-30T07:23:14.785Z,2.20
2023-04-30T07:24:14.854Z,2.30
2023-04-30T07:25:14.755Z,2.20
2023-04-30T07:26:14.811Z,2.10
2023-04-30T07:27:14.773Z,2.30
2023-04-30T07:28:14.716Z,2.10
2023-04-30T07:29:14.731Z,2.20
2023-04-30T07:30:14.701Z,2.00
2023-04-30T07:31:14.786Z,2.10
2023-04-30T07:32:14.645Z,2.10
2023-04-30T07:33:14.741Z,2.20
2023-04-30T07:34:14.656Z,1.90
2023-04-30T07:35:14.611Z,2.10
2023-04-30T07:36:14.648Z,2.00
2023-04-30T07:37:14.609Z,2.00
2023-04-30T07:38:14.622Z,2.00
2023-04-30T07:39:14.676Z,2.00
2023-04-30T07:40:21.927Z,2.10
2023-04-30T07:41:14.599Z,1.90
2023-04-30T07:42:14.658Z,2.00
2023-04-30T07:43:14.567Z,2.20
2023-04-30T07:44:14.551Z,2.30
2023-04-30T07:45:14.530Z,2.00
2023-04-30T07:46:14.536Z,2.30
2023-04-30T07:47:14.518Z,2.00
2023-04-30T07:48:14.602Z,2.30
2023-04-30T07:49:14.516Z,2.10
2023-04-30T07:50:14.520Z,2.20
2023-04-30T07:51:14.399Z,2.50
2023-04-30T07:52:14.471Z,2.30
2023-04-30T07:53:14.478Z,2.20
2023-04-30T07:54:14.514Z,2.20
2023-04-30T07:55:14.495Z,2.20
2023-04-30T07:56:14.561Z,2.50
2023-04-30T07:57:14.412Z,2.30
2023-04-30T07:58:14.420Z,2.30
2023-04-30T07:59:14.569Z,2.40
2023-04-30T08:00:14.426Z,2.80
2023-04-30T08:01:14.368Z,2.40
2023-04-30T08:02:14.475Z,2.20
2023-04-30T08:03:14.431Z,2.40
2023-04-30T08:04:14.446Z,2.40
2023-04-30T08:05:14.334Z,2.20
2023-04-30T08:06:14.366Z,2.30
2023-04-30T08:07:14.272Z,2.30
2023-04-30T08:08:14.328Z,2.30
2023-04-30T08:09:14.296Z,2.20
2023-04-30T08:10:14.274Z,2.10
2023-04-30T08:11:14.258Z,2.60
2023-04-30T08:12:14.303Z,2.50
2023-04-30T08:13:14.948Z,2.20
2023-04-30T08:14:14.138Z,2.40
2023-04-30T08:15:14.144Z,2.30
2023-04-30T08:16:14.237Z,2.00
2023-04-30T08:17:14.236Z,2.10
2023-04-30T08:18:14.331Z,2.20
2023-04-30T08:19:14.102Z,2.40
2023-04-30T08:20:14.128Z,2.30
2023-04-30T08:21:14.132Z,2.60
2023-04-30T08:22:14.258Z,2.60
2023-04-30T08:23:14.022Z,2.50
2023-04-30T08:24:14.217Z,2.30
2023-04-30T08:25:14.160Z,2.30
2023-04-30T08:26:14.133Z,2.20
2023-04-30T08:27:14.097Z,2.60
2023-04-30T08:28:14.228Z,2.20
2023-04-30T08:29:14.168Z,2.20
2023-04-30T08:30:14.154Z,2.20
2023-04-30T08:31:14.126Z,2.30
2023-04-30T08:32:14.465Z,2.40
2023-04-30T08:33:14.172Z,2.70
2023-04-30T08:34:14.104Z,2.50
2023-04-30T08:35:14.181Z,2.40
2023-04-30T08:36:13.945Z,2.40
2023-04-30T08:37:13.917Z,2.50
2023-04-30T08:38:13.927Z,2.30
2023-04-30T08:39:14.048Z,2.20
2023-04-30T08:40:14.032Z,2.40
2023-04-30T08:41:14.044Z,2.20
2023-04-30T08:42:13.981Z,2.40
2023-04-30T08:43:13.941Z,2.80
2023-04-30T08:44:13.933Z,2.60
2023-04-30T08:45:13.780Z,2.80
2023-04-30T08:46:14.020Z,2.40
2023-04-30T08:47:13.795Z,2.20
2023-04-30T08:48:13.897Z,2.40
2023-04-30T08:49:13.929Z,2.60
2023-04-30T08:50:13.904Z,2.40
2023-04-30T08:51:13.935Z,2.30
2023-04-30T08:52:13.845Z,2.60
2023-04-30T08:53:13.826Z,2.60
2023-04-30T08:54:13.824Z,2.40
2023-04-30T08:55:13.848Z,2.70
2023-04-30T08:56:13.880Z,2.30
2023-04-30T08:57:13.884Z,2.60
2023-04-30T08:58:13.791Z,2.50
2023-04-30T08:59:13.773Z,2.40
2023-04-30T09:00:13.759Z,2.30
2023-04-30T09:01:13.822Z,2.30
2023-04-30T09:02:13.901Z,2.60
2023-04-30T09:03:13.996Z,2.50
2023-04-30T09:04:14.063Z,2.40
2023-04-30T09:05:13.821Z,2.30
2023-04-30T09:06:13.683Z,2.20
2023-04-30T09:07:13.757Z,2.30
2023-04-30T09:08:13.744Z,2.20
2023-04-30T09:09:13.775Z,2.30
2023-04-30T09:10:13.714Z,2.20
2023-04-30T09:11:13.762Z,2.50
2023-04-30T09:12:15.168Z,2.40
2023-04-30T09:13:13.684Z,2.40
2023-04-30T09:14:13.661Z,2.40
2023-04-30T09:15:13.644Z,2.30
2023-04-30T09:16:13.631Z,2.50
2023-04-30T09:17:13.678Z,2.40
2023-04-30T09:18:13.687Z,2.30
2023-04-30T09:19:13.696Z,2.40
2023-04-30T09:20:13.590Z,2.30
2023-04-30T09:21:13.447Z,2.30
2023-04-30T09:22:13.654Z,2.10
2023-04-30T09:23:13.534Z,2.20
2023-04-30T09:24:13.688Z,2.30
2023-04-30T09:25:13.633Z,2.50
2023-04-30T09:26:13.576Z,2.40
2023-04-30T09:27:13.619Z,2.60
2023-04-30T09:28:13.490Z,2.70
2023-04-30T09:29:13.516Z,2.50
2023-04-30T09:30:13.477Z,2.40
2023-04-30T09:31:13.579Z,2.40
2023-04-30T09:32:13.545Z,2.50
2023-04-30T09:33:13.538Z,2.60
2023-04-30T09:34:13.456Z,2.40
2023-04-30T09:35:13.423Z,2.20
2023-04-30T09:36:13.491Z,2.60
2023-04-30T09:37:13.391Z,2.30
2023-04-30T09:38:13.376Z,2.30
2023-04-30T09:39:15.242Z,2.30
2023-04-30T09:40:13.385Z,2.40
2023-04-30T09:41:13.374Z,2.50
2023-04-30T09:42:13.440Z,2.30
2023-04-30T09:43:13.411Z,2.40
2023-04-30T09:44:13.379Z,2.00
2023-04-30T09:45:13.345Z,2.00
2023-04-30T09:46:13.414Z,2.20
2023-04-30T09:47:13.364Z,2.10
2023-04-30T09:48:17.661Z,2.00
2023-04-30T09:49:13.360Z,2.10
2023-04-30T09:50:13.277Z,2.20
2023-04-30T09:51:13.204Z,1.90
2023-04-30T09:52:13.386Z,2.10
2023-04-30T09:53:13.302Z,2.40
2023-04-30T09:54:13.285Z,2.40
2023-04-30T09:55:13.284Z,2.30
2023-04-30T09:56:13.340Z,2.30
2023-04-30T09:57:13.234Z,2.10
2023-04-30T09:58:13.232Z,2.20
2023-04-30T09:59:13.282Z,2.20
2023-04-30T10:00:13.182Z,2.30
2023-04-30T10:01:13.231Z,2.10
2023-04-30T10:02:13.229Z,2.00
2023-04-30T10:03:13.392Z,2.00
2023-04-30T10:04:13.292Z,2.10
2023-04-30T10:05:13.177Z,2.40
2023-04-30T10:06:12.998Z,2.30
2023-04-30T10:07:15.675Z,2.00
2023-04-30T10:08:13.109Z,2.10
2023-04-30T10:09:13.273Z,2.50
2023-04-30T10:10:13.104Z,2.40
2023-04-30T10:11:13.135Z,2.40
2023-04-30T10:12:13.064Z,2.40
2023-04-30T10:13:13.169Z,2.40
2023-04-30T10:14:13.134Z,2.40
2023-04-30T10:15:13.129Z,2.10
2023-04-30T10:16:13.083Z,2.40
2023-04-30T10:17:13.039Z,2.30
2023-04-30T10:18:13.036Z,2.30
2023-04-30T10:19:13.022Z,2.10
2023-04-30T10:20:13.038Z,2.30
2023-04-30T10:21:12.902Z,2.30
2023-04-30T10:22:13.025Z,2.10
2023-04-30T10:23:13.191Z,2.10
2023-04-30T10:24:13.016Z,2.20
2023-04-30T10:25:13.017Z,2.30
2023-04-30T10:26:12.998Z,2.30
2023-04-30T10:27:13.039Z,2.10
2023-04-30T10:28:12.831Z,2.20
2023-04-30T10:29:12.830Z,2.30
2023-04-30T10:30:12.864Z,2.40
2023-04-30T10:31:12.822Z,2.30
2023-04-30T10:32:13.004Z,2.40
2023-04-30T10:33:15.659Z,2.20
2023-04-30T10:34:12.796Z,2.20
2023-04-30T10:35:12.779Z,2.20
2023-04-30T10:36:12.822Z,2.20
2023-04-30T10:37:13.038Z,2.40
2023-04-30T10:38:12.737Z,2.20
2023-04-30T10:39:12.876Z,2.30
2023-04-30T10:40:12.873Z,2.40
2023-04-30T10:41:13.013Z,2.70
2023-04-30T10:42:12.719Z,2.30
2023-04-30T10:43:12.702Z,2.30
2023-04-30T10:44:12.855Z,2.50
2023-04-30T10:45:12.861Z,2.40
2023-04-30T10:46:12.894Z,2.10
2023-04-30T10:47:12.825Z,2.30
2023-04-30T10:48:12.820Z,2.20
2023-04-30T10:49:12.824Z,2.20
2023-04-30T10:50:12.703Z,2.10
2023-04-30T10:51:12.661Z,2.20
2023-04-30T10:52:12.781Z,2.00
2023-04-30T10:53:12.763Z,2.00
2023-04-30T10:54:12.760Z,2.10
2023-04-30T10:55:12.760Z,1.90
2023-04-30T10:56:12.754Z,2.10
2023-04-30T10:57:12.830Z,1.90
2023-04-30T10:58:12.754Z,2.10
2023-04-30T10:59:12.693Z,2.00
2023-04-30T11:00:12.709Z,2.00
2023-04-30T11:01:12.847Z,2.00
2023-04-30T11:02:12.695Z,1.90
2023-04-30T11:03:12.596Z,2.20
2023-04-30T11:04:12.613Z,2.30
2023-04-30T11:05:12.627Z,2.20
2023-04-30T11:06:12.713Z,2.10
2023-04-30T11:07:12.561Z,2.20
2023-04-30T11:08:12.537Z,2.00
2023-04-30T11:09:12.564Z,2.20
2023-04-30T11:10:12.527Z,2.00
2023-04-30T11:11:12.624Z,2.00
2023-04-30T11:12:12.860Z,2.20
2023-04-30T11:13:12.565Z,2.40
2023-04-30T11:14:12.592Z,2.30
2023-04-30T11:15:12.587Z,2.20
2023-04-30T11:16:12.627Z,1.90
2023-04-30T11:17:12.487Z,2.20
2023-04-30T11:18:12.611Z,2.20
2023-04-30T11:19:12.457Z,2.30
2023-04-30T11:20:12.598Z,2.30
2023-04-30T11:21:12.303Z,2.20
2023-04-30T11:22:12.453Z,2.40
2023-04-30T11:23:12.651Z,2.40
2023-04-30T11:24:12.482Z,2.20
2023-04-30T11:25:12.416Z,2.30
2023-04-30T11:26:12.487Z,2.40
2023-04-30T11:27:12.504Z,2.40
2023-04-30T11:28:12.397Z,2.40
2023-04-30T11:29:12.487Z,2.70
2023-04-30T11:30:12.350Z,2.90
2023-04-30T11:31:14.570Z,2.40
2023-04-30T11:32:12.364Z,2.40
2023-04-30T11:33:12.247Z,2.30
2023-04-30T11:34:12.448Z,2.30
2023-04-30T11:35:12.230Z,2.30
2023-04-30T11:36:12.190Z,2.60
2023-04-30T11:37:12.204Z,2.40
2023-04-30T11:38:12.368Z,2.40
2023-04-30T11:39:12.272Z,2.40
2023-04-30T11:40:12.140Z,3.10
2023-04-30T11:41:12.283Z,2.70
2023-04-30T11:42:12.276Z,2.60
2023-04-30T11:43:12.338Z,2.80
2023-04-30T11:44:12.068Z,2.80
2023-04-30T11:45:12.232Z,2.60
2023-04-30T11:46:12.277Z,2.40
2023-04-30T11:47:12.261Z,2.70
2023-04-30T11:48:12.280Z,2.50
2023-04-30T11:49:12.279Z,2.60
2023-04-30T11:50:12.167Z,2.60
2023-04-30T11:51:12.133Z,2.90
2023-04-30T11:52:12.018Z,2.60
2023-04-30T11:53:12.176Z,2.80
2023-04-30T11:54:12.058Z,2.40
2023-04-30T11:55:12.133Z,2.80
2023-04-30T11:56:12.252Z,2.60
2023-04-30T11:57:12.139Z,2.80
2023-04-30T11:58:12.037Z,2.60
2023-04-30T11:59:11.921Z,2.60
2023-04-30T12:00:12.125Z,2.50
2023-04-30T12:01:11.912Z,2.60
2023-04-30T12:02:13.593Z,2.50
2023-04-30T12:03:12.005Z,2.60
2023-04-30T12:04:12.127Z,2.90
2023-04-30T12:05:11.847Z,2.30
2023-04-30T12:06:11.934Z,2.20
2023-04-30T12:07:11.820Z,2.20
2023-04-30T12:08:11.819Z,2.40
2023-04-30T12:09:11.982Z,2.30
2023-04-30T12:10:11.950Z,2.50
2023-04-30T12:11:11.949Z,2.50
2023-04-30T12:12:12.022Z,3.00
2023-04-30T12:13:11.922Z,2.40
2023-04-30T12:14:11.922Z,2.50
2023-04-30T12:15:11.979Z,2.60
2023-04-30T12:16:11.955Z,2.50
2023-04-30T12:17:11.801Z,2.40
2023-04-30T12:18:11.781Z,2.50
2023-04-30T12:19:11.775Z,2.10
2023-04-30T12:20:11.723Z,2.20
2023-04-30T12:21:11.809Z,2.10
2023-04-30T12:22:11.686Z,2.10
2023-04-30T12:23:11.834Z,2.60
2023-04-30T12:24:11.682Z,2.00
2023-04-30T12:25:11.713Z,2.20
2023-04-30T12:26:11.868Z,1.90
2023-04-30T12:27:11.924Z,2.10
2023-04-30T12:28:11.607Z,2.10
2023-04-30T12:29:13.500Z,1.80
2023-04-30T12:30:11.701Z,1.80
2023-04-30T12:31:11.562Z,1.80
2023-04-30T12:32:11.658Z,1.80
2023-04-30T12:33:11.792Z,2.00
2023-04-30T12:34:11.568Z,1.60
2023-04-30T12:35:11.605Z,1.50
2023-04-30T12:36:11.593Z,1.50
2023-04-30T12:37:11.737Z,1.50
2023-04-30T12:38:11.539Z,1.40
2023-04-30T12:39:11.756Z,1.40
2023-04-30T12:40:11.666Z,1.60
2023-04-30T12:41:11.720Z,1.30
2023-04-30T12:42:11.707Z,1.50
2023-04-30T12:43:11.586Z,1.50
2023-04-30T12:44:11.645Z,1.70
2023-04-30T12:45:11.728Z,1.30
2023-04-30T12:46:11.663Z,1.70
2023-04-30T12:47:11.518Z,1.80
2023-04-30T12:48:11.641Z,1.70
2023-04-30T12:49:11.444Z,1.60
2023-04-30T12:50:11.548Z,1.80
2023-04-30T12:51:11.557Z,1.90
2023-04-30T12:52:11.623Z,1.80
2023-04-30T12:53:11.508Z,1.80
2023-04-30T12:54:11.424Z,2.00
2023-04-30T12:55:11.478Z,1.90
2023-04-30T12:56:11.450Z,2.00
2023-04-30T12:57:11.582Z,1.90
2023-04-30T12:58:11.524Z,2.00
2023-04-30T12:59:11.439Z,2.10
2023-04-30T13:00:11.405Z,2.00
2023-04-30T13:01:11.558Z,2.20
2023-04-30T13:02:11.572Z,2.10
2023-04-30T13:03:11.543Z,2.10
2023-04-30T13:04:11.333Z,1.90
2023-04-30T13:05:12.051Z,1.80
2023-04-30T13:06:11.345Z,2.00
2023-04-30T13:07:11.241Z,1.90
2023-04-30T13:08:11.460Z,1.80
2023-04-30T13:09:11.329Z,2.00
2023-04-30T13:10:11.383Z,1.90
2023-04-30T13:11:11.624Z,2.00
2023-04-30T13:12:11.148Z,1.90
2023-04-30T13:13:11.351Z,1.80
2023-04-30T13:14:11.360Z,1.90
2023-04-30T13:15:11.316Z,1.80
2023-04-30T13:16:11.315Z,1.90
2023-04-30T13:17:11.096Z,1.80
2023-04-30T13:18:11.357Z,2.20